Ipiales, San Luis Airport (Colombia) (SKIP)

NameSan Luis Airport (Colombia)
CityIpiales
CountryColombia
ICAOSKIP
IATAIPI
Altitude2976 m
CoordinatesGoogle Map
Live Air TrafficLiveATC.net
METARSKIP 251700Z 09007KT 9999 BKN018 16/10 A3046
2020-04-25 17:00:00 Wind: East (90°) 3.6 m/s - Visibility: > 10000 m - Temperature: 16 °C - Dew point: 10 °C - Humidity: 67.8% - Pressure: 1031.49 hPa

Sorry, no flights used the airport in this database.